sensor_id;sensor_type;location;lat;lon;timestamp;P1;durP1;ratioP1;P2;durP2;ratioP2
77802;SDS011;66993;48.256;16.422;2024-01-30T00:00:26;24.9;;;14.2;;
77802;SDS011;66993;48.256;16.422;2024-01-30T00:05:27;22.4;;;12.6;;
77802;SDS011;66993;48.256;16.422;2024-01-30T00:10:30;22.9;;;12.4;;
77802;SDS011;66993;48.256;16.422;2024-01-30T00:15:30;25.5;;;13.1;;
77802;SDS011;66993;48.256;16.422;2024-01-30T00:20:31;22.8;;;12.5;;
77802;SDS011;66993;48.256;16.422;2024-01-30T00:25:32;24.4;;;13.0;;
77802;SDS011;66993;48.256;16.422;2024-01-30T00:30:34;24.9;;;12.1;;
77802;SDS011;66993;48.256;16.422;2024-01-30T00:35:35;23.9;;;12.4;;
77802;SDS011;66993;48.256;16.422;2024-01-30T00:40:36;26.0;;;12.0;;
77802;SDS011;66993;48.256;16.422;2024-01-30T00:45:38;24.0;;;12.2;;
77802;SDS011;66993;48.256;16.422;2024-01-30T00:50:39;23.8;;;12.5;;
77802;SDS011;66993;48.256;16.422;2024-01-30T00:55:40;26.1;;;12.0;;
77802;SDS011;66993;48.256;16.422;2024-01-30T01:00:42;21.7;;;11.9;;
77802;SDS011;66993;48.256;16.422;2024-01-30T01:05:43;22.9;;;12.4;;
77802;SDS011;66993;48.256;16.422;2024-01-30T01:10:44;25.6;;;12.7;;
77802;SDS011;66993;48.256;16.422;2024-01-30T01:15:46;24.7;;;12.5;;
77802;SDS011;66993;48.256;16.422;2024-01-30T01:20:47;25.4;;;12.3;;
77802;SDS011;66993;48.256;16.422;2024-01-30T01:25:48;25.4;;;12.1;;
77802;SDS011;66993;48.256;16.422;2024-01-30T01:30:50;26.6;;;12.8;;
77802;SDS011;66993;48.256;16.422;2024-01-30T01:35:51;25.5;;;13.2;;
77802;SDS011;66993;48.256;16.422;2024-01-30T01:40:52;25.9;;;14.5;;
77802;SDS011;66993;48.256;16.422;2024-01-30T01:45:53;25.9;;;13.0;;
77802;SDS011;66993;48.256;16.422;2024-01-30T01:50:55;24.6;;;11.8;;
77802;SDS011;66993;48.256;16.422;2024-01-30T01:55:56;24.9;;;13.9;;
77802;SDS011;66993;48.256;16.422;2024-01-30T02:00:58;27.5;;;13.3;;
77802;SDS011;66993;48.256;16.422;2024-01-30T02:05:59;28.5;;;14.8;;
77802;SDS011;66993;48.256;16.422;2024-01-30T02:11:00;29.5;;;14.0;;
77802;SDS011;66993;48.256;16.422;2024-01-30T02:16:01;27.9;;;13.8;;
77802;SDS011;66993;48.256;16.422;2024-01-30T02:21:03;31.2;;;13.7;;
77802;SDS011;66993;48.256;16.422;2024-01-30T02:26:04;25.1;;;14.3;;
77802;SDS011;66993;48.256;16.422;2024-01-30T02:31:05;32.3;;;16.4;;
77802;SDS011;66993;48.256;16.422;2024-01-30T02:36:07;28.5;;;14.3;;
77802;SDS011;66993;48.256;16.422;2024-01-30T02:41:08;31.1;;;14.2;;
77802;SDS011;66993;48.256;16.422;2024-01-30T02:46:09;27.1;;;14.4;;
77802;SDS011;66993;48.256;16.422;2024-01-30T02:51:11;31.8;;;14.5;;
77802;SDS011;66993;48.256;16.422;2024-01-30T02:56:12;31.3;;;15.8;;
77802;SDS011;66993;48.256;16.422;2024-01-30T03:01:13;30.4;;;15.5;;
77802;SDS011;66993;48.256;16.422;2024-01-30T03:06:14;27.2;;;13.7;;
77802;SDS011;66993;48.256;16.422;2024-01-30T03:11:16;29.2;;;14.8;;
77802;SDS011;66993;48.256;16.422;2024-01-30T03:16:17;30.2;;;14.9;;
77802;SDS011;66993;48.256;16.422;2024-01-30T03:21:18;31.1;;;16.5;;
77802;SDS011;66993;48.256;16.422;2024-01-30T03:26:20;34.0;;;16.0;;
77802;SDS011;66993;48.256;16.422;2024-01-30T03:31:21;33.7;;;15.1;;
77802;SDS011;66993;48.256;16.422;2024-01-30T03:36:22;30.3;;;15.6;;
77802;SDS011;66993;48.256;16.422;2024-01-30T03:41:24;32.4;;;15.6;;
77802;SDS011;66993;48.256;16.422;2024-01-30T03:46:25;33.5;;;16.2;;
77802;SDS011;66993;48.256;16.422;2024-01-30T03:51:26;32.3;;;15.5;;
77802;SDS011;66993;48.256;16.422;2024-01-30T03:56:27;33.4;;;15.5;;
77802;SDS011;66993;48.256;16.422;2024-01-30T04:01:29;31.4;;;15.9;;
77802;SDS011;66993;48.256;16.422;2024-01-30T04:06:30;32.3;;;15.9;;
77802;SDS011;66993;48.256;16.422;2024-01-30T04:11:33;32.2;;;17.5;;
77802;SDS011;66993;48.256;16.422;2024-01-30T04:16:33;32.8;;;16.6;;
77802;SDS011;66993;48.256;16.422;2024-01-30T04:21:36;36.7;;;17.1;;
77802;SDS011;66993;48.256;16.422;2024-01-30T04:26:35;37.9;;;17.3;;
77802;SDS011;66993;48.256;16.422;2024-01-30T04:31:37;36.5;;;17.1;;
77802;SDS011;66993;48.256;16.422;2024-01-30T04:36:38;37.1;;;17.2;;
77802;SDS011;66993;48.256;16.422;2024-01-30T04:41:42;36.9;;;17.4;;
77802;SDS011;66993;48.256;16.422;2024-01-30T04:46:40;33.0;;;16.0;;
77802;SDS011;66993;48.256;16.422;2024-01-30T04:51:42;31.6;;;16.0;;
77802;SDS011;66993;48.256;16.422;2024-01-30T04:56:43;34.1;;;17.4;;
77802;SDS011;66993;48.256;16.422;2024-01-30T05:01:46;35.3;;;17.7;;
77802;SDS011;66993;48.256;16.422;2024-01-30T05:06:46;32.2;;;16.2;;
77802;SDS011;66993;48.256;16.422;2024-01-30T05:11:47;38.0;;;15.1;;
77802;SDS011;66993;48.256;16.422;2024-01-30T05:16:48;34.6;;;16.9;;
77802;SDS011;66993;48.256;16.422;2024-01-30T05:21:50;34.5;;;16.6;;
77802;SDS011;66993;48.256;16.422;2024-01-30T05:26:51;38.3;;;18.0;;
77802;SDS011;66993;48.256;16.422;2024-01-30T05:31:53;38.3;;;17.3;;
77802;SDS011;66993;48.256;16.422;2024-01-30T05:36:54;35.7;;;15.4;;
77802;SDS011;66993;48.256;16.422;2024-01-30T05:41:55;38.3;;;17.5;;
77802;SDS011;66993;48.256;16.422;2024-01-30T05:46:56;35.8;;;15.7;;
77802;SDS011;66993;48.256;16.422;2024-01-30T05:51:58;42.2;;;17.7;;
77802;SDS011;66993;48.256;16.422;2024-01-30T05:56:59;35.0;;;16.6;;
77802;SDS011;66993;48.256;16.422;2024-01-30T06:02:01;37.4;;;16.6;;
77802;SDS011;66993;48.256;16.422;2024-01-30T06:07:01;36.8;;;17.3;;
77802;SDS011;66993;48.256;16.422;2024-01-30T06:12:03;36.1;;;17.0;;
77802;SDS011;66993;48.256;16.422;2024-01-30T06:17:04;41.2;;;18.9;;
77802;SDS011;66993;48.256;16.422;2024-01-30T06:22:10;38.0;;;17.6;;
77802;SDS011;66993;48.256;16.422;2024-01-30T06:27:07;39.3;;;16.0;;
77802;SDS011;66993;48.256;16.422;2024-01-30T06:32:08;37.0;;;18.2;;
77802;SDS011;66993;48.256;16.422;2024-01-30T06:37:10;38.9;;;17.9;;
77802;SDS011;66993;48.256;16.422;2024-01-30T06:42:11;41.6;;;19.2;;
77802;SDS011;66993;48.256;16.422;2024-01-30T06:47:13;33.5;;;16.5;;
77802;SDS011;66993;48.256;16.422;2024-01-30T06:52:13;40.4;;;17.5;;
77802;SDS011;66993;48.256;16.422;2024-01-30T06:57:15;35.6;;;17.4;;
77802;SDS011;66993;48.256;16.422;2024-01-30T07:02:16;39.5;;;17.9;;
77802;SDS011;66993;48.256;16.422;2024-01-30T07:07:23;38.6;;;18.7;;
77802;SDS011;66993;48.256;16.422;2024-01-30T07:12:19;34.6;;;17.2;;
77802;SDS011;66993;48.256;16.422;2024-01-30T07:17:20;35.1;;;15.7;;
77802;SDS011;66993;48.256;16.422;2024-01-30T07:22:21;35.9;;;17.7;;
77802;SDS011;66993;48.256;16.422;2024-01-30T07:32:24;35.7;;;18.7;;
77802;SDS011;66993;48.256;16.422;2024-01-30T07:37:25;35.4;;;16.9;;
77802;SDS011;66993;48.256;16.422;2024-01-30T07:42:27;36.2;;;15.6;;
77802;SDS011;66993;48.256;16.422;2024-01-30T07:47:28;34.1;;;15.5;;
77802;SDS011;66993;48.256;16.422;2024-01-30T07:52:29;33.5;;;15.6;;
77802;SDS011;66993;48.256;16.422;2024-01-30T07:57:30;28.9;;;16.3;;
77802;SDS011;66993;48.256;16.422;2024-01-30T08:02:32;30.4;;;14.3;;
77802;SDS011;66993;48.256;16.422;2024-01-30T08:07:33;30.5;;;13.8;;
77802;SDS011;66993;48.256;16.422;2024-01-30T08:12:35;27.7;;;14.2;;
77802;SDS011;66993;48.256;16.422;2024-01-30T08:17:36;26.4;;;13.4;;
77802;SDS011;66993;48.256;16.422;2024-01-30T08:22:38;26.6;;;15.7;;
77802;SDS011;66993;48.256;16.422;2024-01-30T08:27:38;27.4;;;13.7;;
77802;SDS011;66993;48.256;16.422;2024-01-30T08:32:40;30.2;;;13.5;;
77802;SDS011;66993;48.256;16.422;2024-01-30T08:37:41;28.1;;;14.1;;
77802;SDS011;66993;48.256;16.422;2024-01-30T08:42:42;26.9;;;14.0;;
77802;SDS011;66993;48.256;16.422;2024-01-30T08:47:43;27.2;;;14.8;;
77802;SDS011;66993;48.256;16.422;2024-01-30T08:52:45;28.0;;;14.2;;
77802;SDS011;66993;48.256;16.422;2024-01-30T08:57:46;28.1;;;13.8;;
77802;SDS011;66993;48.256;16.422;2024-01-30T09:02:47;26.3;;;14.2;;
77802;SDS011;66993;48.256;16.422;2024-01-30T09:07:49;27.9;;;14.3;;
77802;SDS011;66993;48.256;16.422;2024-01-30T09:12:50;31.0;;;14.1;;
77802;SDS011;66993;48.256;16.422;2024-01-30T09:17:51;25.5;;;13.8;;
77802;SDS011;66993;48.256;16.422;2024-01-30T09:22:53;26.1;;;12.4;;
77802;SDS011;66993;48.256;16.422;2024-01-30T09:27:54;26.9;;;13.4;;
77802;SDS011;66993;48.256;16.422;2024-01-30T09:32:59;22.4;;;12.5;;
77802;SDS011;66993;48.256;16.422;2024-01-30T09:37:56;23.2;;;12.7;;
77802;SDS011;66993;48.256;16.422;2024-01-30T09:42:58;22.3;;;12.2;;
77802;SDS011;66993;48.256;16.422;2024-01-30T09:47:59;19.3;;;11.3;;
77802;SDS011;66993;48.256;16.422;2024-01-30T09:53:00;21.5;;;11.7;;
77802;SDS011;66993;48.256;16.422;2024-01-30T09:58:02;22.9;;;11.9;;
77802;SDS011;66993;48.256;16.422;2024-01-30T10:03:03;22.0;;;12.4;;
77802;SDS011;66993;48.256;16.422;2024-01-30T10:08:06;19.5;;;10.9;;
77802;SDS011;66993;48.256;16.422;2024-01-30T10:13:06;20.5;;;10.1;;
77802;SDS011;66993;48.256;16.422;2024-01-30T10:18:08;23.6;;;11.4;;
77802;SDS011;66993;48.256;16.422;2024-01-30T10:23:08;18.8;;;11.1;;
77802;SDS011;66993;48.256;16.422;2024-01-30T10:28:10;25.1;;;11.3;;
77802;SDS011;66993;48.256;16.422;2024-01-30T10:33:11;21.8;;;12.0;;
77802;SDS011;66993;48.256;16.422;2024-01-30T10:38:12;20.1;;;10.3;;
77802;SDS011;66993;48.256;16.422;2024-01-30T10:43:14;22.8;;;11.6;;
77802;SDS011;66993;48.256;16.422;2024-01-30T10:48:15;19.6;;;11.4;;
77802;SDS011;66993;48.256;16.422;2024-01-30T10:53:16;21.2;;;11.8;;
77802;SDS011;66993;48.256;16.422;2024-01-30T10:58:17;22.6;;;11.5;;
77802;SDS011;66993;48.256;16.422;2024-01-30T11:03:19;19.0;;;10.2;;
77802;SDS011;66993;48.256;16.422;2024-01-30T11:08:25;22.1;;;11.9;;
77802;SDS011;66993;48.256;16.422;2024-01-30T11:13:21;20.8;;;11.6;;
77802;SDS011;66993;48.256;16.422;2024-01-30T11:18:23;22.3;;;12.7;;
77802;SDS011;66993;48.256;16.422;2024-01-30T11:23:25;24.0;;;11.2;;
77802;SDS011;66993;48.256;16.422;2024-01-30T11:28:25;19.7;;;10.1;;
77802;SDS011;66993;48.256;16.422;2024-01-30T11:33:27;19.2;;;11.2;;
77802;SDS011;66993;48.256;16.422;2024-01-30T11:38:28;17.0;;;9.6;;
77802;SDS011;66993;48.256;16.422;2024-01-30T11:43:29;17.2;;;10.1;;
77802;SDS011;66993;48.256;16.422;2024-01-30T11:48:31;18.0;;;9.8;;
77802;SDS011;66993;48.256;16.422;2024-01-30T11:53:32;18.7;;;9.0;;
77802;SDS011;66993;48.256;16.422;2024-01-30T11:58:33;17.9;;;9.6;;
77802;SDS011;66993;48.256;16.422;2024-01-30T12:03:38;20.3;;;11.5;;
77802;SDS011;66993;48.256;16.422;2024-01-30T12:08:36;18.6;;;10.9;;
77802;SDS011;66993;48.256;16.422;2024-01-30T12:13:38;20.3;;;10.1;;
77802;SDS011;66993;48.256;16.422;2024-01-30T12:18:39;18.6;;;9.5;;
77802;SDS011;66993;48.256;16.422;2024-01-30T12:23:40;17.2;;;9.5;;
77802;SDS011;66993;48.256;16.422;2024-01-30T12:33:43;16.6;;;10.1;;
77802;SDS011;66993;48.256;16.422;2024-01-30T12:38:44;18.7;;;9.7;;
77802;SDS011;66993;48.256;16.422;2024-01-30T12:43:47;17.4;;;9.3;;
77802;SDS011;66993;48.256;16.422;2024-01-30T12:48:46;17.1;;;10.4;;
77802;SDS011;66993;48.256;16.422;2024-01-30T12:53:50;15.5;;;9.4;;
77802;SDS011;66993;48.256;16.422;2024-01-30T12:58:49;15.6;;;10.0;;
77802;SDS011;66993;48.256;16.422;2024-01-30T13:03:50;16.2;;;9.2;;
77802;SDS011;66993;48.256;16.422;2024-01-30T13:08:52;14.8;;;9.3;;
77802;SDS011;66993;48.256;16.422;2024-01-30T13:13:53;14.9;;;8.6;;
77802;SDS011;66993;48.256;16.422;2024-01-30T13:18:54;14.8;;;8.1;;
77802;SDS011;66993;48.256;16.422;2024-01-30T13:23:56;15.8;;;9.2;;
77802;SDS011;66993;48.256;16.422;2024-01-30T13:28:57;14.7;;;8.5;;
77802;SDS011;66993;48.256;16.422;2024-01-30T13:33:58;15.3;;;8.1;;
77802;SDS011;66993;48.256;16.422;2024-01-30T13:39:00;13.3;;;8.1;;
77802;SDS011;66993;48.256;16.422;2024-01-30T13:44:02;13.9;;;7.9;;
77802;SDS011;66993;48.256;16.422;2024-01-30T13:49:02;13.1;;;8.2;;
77802;SDS011;66993;48.256;16.422;2024-01-30T13:54:04;14.5;;;8.5;;
77802;SDS011;66993;48.256;16.422;2024-01-30T13:59:05;13.3;;;6.9;;
77802;SDS011;66993;48.256;16.422;2024-01-30T14:04:08;15.8;;;8.0;;
77802;SDS011;66993;48.256;16.422;2024-01-30T14:09:08;13.3;;;8.0;;
77802;SDS011;66993;48.256;16.422;2024-01-30T14:14:09;13.8;;;8.2;;
77802;SDS011;66993;48.256;16.422;2024-01-30T14:19:10;16.2;;;8.0;;
77802;SDS011;66993;48.256;16.422;2024-01-30T14:24:12;13.0;;;7.1;;
77802;SDS011;66993;48.256;16.422;2024-01-30T14:29:13;14.5;;;7.9;;
77802;SDS011;66993;48.256;16.422;2024-01-30T14:34:15;15.5;;;8.0;;
77802;SDS011;66993;48.256;16.422;2024-01-30T14:39:16;15.0;;;8.6;;
77802;SDS011;66993;48.256;16.422;2024-01-30T14:44:22;15.3;;;8.4;;
77802;SDS011;66993;48.256;16.422;2024-01-30T14:49:19;14.5;;;7.7;;
77802;SDS011;66993;48.256;16.422;2024-01-30T14:54:20;14.1;;;8.2;;
77802;SDS011;66993;48.256;16.422;2024-01-30T14:59:22;14.6;;;8.5;;
77802;SDS011;66993;48.256;16.422;2024-01-30T15:04:23;17.2;;;9.2;;
77802;SDS011;66993;48.256;16.422;2024-01-30T15:09:24;18.7;;;8.7;;
77802;SDS011;66993;48.256;16.422;2024-01-30T15:14:25;21.4;;;10.7;;
77802;SDS011;66993;48.256;16.422;2024-01-30T15:19:27;17.6;;;9.5;;
77802;SDS011;66993;48.256;16.422;2024-01-30T15:24:28;15.4;;;8.9;;
77802;SDS011;66993;48.256;16.422;2024-01-30T15:29:32;15.6;;;9.3;;
77802;SDS011;66993;48.256;16.422;2024-01-30T15:34:31;16.7;;;8.7;;
77802;SDS011;66993;48.256;16.422;2024-01-30T15:39:32;16.8;;;8.3;;
77802;SDS011;66993;48.256;16.422;2024-01-30T15:44:33;14.8;;;8.4;;
77802;SDS011;66993;48.256;16.422;2024-01-30T15:49:35;18.6;;;8.9;;
77802;SDS011;66993;48.256;16.422;2024-01-30T15:54:36;14.9;;;9.2;;
77802;SDS011;66993;48.256;16.422;2024-01-30T15:59:37;15.2;;;8.4;;
77802;SDS011;66993;48.256;16.422;2024-01-30T16:04:39;18.0;;;8.3;;
77802;SDS011;66993;48.256;16.422;2024-01-30T16:09:40;17.0;;;8.4;;
77802;SDS011;66993;48.256;16.422;2024-01-30T16:14:41;14.8;;;8.0;;
77802;SDS011;66993;48.256;16.422;2024-01-30T16:19:43;13.2;;;8.6;;
77802;SDS011;66993;48.256;16.422;2024-01-30T16:24:44;14.3;;;8.1;;
77802;SDS011;66993;48.256;16.422;2024-01-30T16:29:45;14.7;;;7.3;;
77802;SDS011;66993;48.256;16.422;2024-01-30T16:34:50;16.9;;;8.0;;
77802;SDS011;66993;48.256;16.422;2024-01-30T16:39:48;15.0;;;7.9;;
77802;SDS011;66993;48.256;16.422;2024-01-30T16:44:49;17.4;;;9.2;;
77802;SDS011;66993;48.256;16.422;2024-01-30T16:49:51;16.0;;;8.1;;
77802;SDS011;66993;48.256;16.422;2024-01-30T16:54:52;15.1;;;7.8;;
77802;SDS011;66993;48.256;16.422;2024-01-30T16:59:53;17.3;;;8.9;;
77802;SDS011;66993;48.256;16.422;2024-01-30T17:04:54;17.0;;;9.0;;
77802;SDS011;66993;48.256;16.422;2024-01-30T17:09:56;16.0;;;9.0;;
77802;SDS011;66993;48.256;16.422;2024-01-30T17:14:57;16.5;;;9.0;;
77802;SDS011;66993;48.256;16.422;2024-01-30T17:19:58;18.1;;;8.7;;
77802;SDS011;66993;48.256;16.422;2024-01-30T17:24:59;19.8;;;9.7;;
77802;SDS011;66993;48.256;16.422;2024-01-30T17:30:00;18.5;;;9.6;;
77802;SDS011;66993;48.256;16.422;2024-01-30T17:35:02;20.3;;;10.5;;
77802;SDS011;66993;48.256;16.422;2024-01-30T17:40:03;19.6;;;9.7;;
77802;SDS011;66993;48.256;16.422;2024-01-30T17:45:04;19.8;;;9.8;;
77802;SDS011;66993;48.256;16.422;2024-01-30T17:50:06;21.5;;;10.0;;
77802;SDS011;66993;48.256;16.422;2024-01-30T17:55:07;22.3;;;10.4;;
77802;SDS011;66993;48.256;16.422;2024-01-30T18:00:09;20.7;;;10.8;;
77802;SDS011;66993;48.256;16.422;2024-01-30T18:05:11;19.8;;;10.2;;
77802;SDS011;66993;48.256;16.422;2024-01-30T18:10:11;20.3;;;10.4;;
77802;SDS011;66993;48.256;16.422;2024-01-30T18:15:13;21.5;;;10.3;;
77802;SDS011;66993;48.256;16.422;2024-01-30T18:20:13;20.8;;;10.6;;
77802;SDS011;66993;48.256;16.422;2024-01-30T18:25:15;22.0;;;11.0;;
77802;SDS011;66993;48.256;16.422;2024-01-30T18:30:16;22.0;;;11.3;;
77802;SDS011;66993;48.256;16.422;2024-01-30T18:35:18;23.5;;;11.2;;
77802;SDS011;66993;48.256;16.422;2024-01-30T18:40:19;23.6;;;11.8;;
77802;SDS011;66993;48.256;16.422;2024-01-30T18:45:20;26.9;;;13.1;;
77802;SDS011;66993;48.256;16.422;2024-01-30T18:50:21;26.3;;;13.0;;
77802;SDS011;66993;48.256;16.422;2024-01-30T18:55:23;27.4;;;13.1;;
77802;SDS011;66993;48.256;16.422;2024-01-30T19:00:24;26.5;;;12.2;;
77802;SDS011;66993;48.256;16.422;2024-01-30T19:05:25;23.9;;;13.0;;
77802;SDS011;66993;48.256;16.422;2024-01-30T19:10:27;25.5;;;12.8;;
77802;SDS011;66993;48.256;16.422;2024-01-30T19:15:28;28.7;;;13.8;;
77802;SDS011;66993;48.256;16.422;2024-01-30T19:20:29;27.2;;;13.6;;
77802;SDS011;66993;48.256;16.422;2024-01-30T19:25:31;24.4;;;12.8;;
77802;SDS011;66993;48.256;16.422;2024-01-30T19:30:32;31.5;;;15.2;;
77802;SDS011;66993;48.256;16.422;2024-01-30T19:35:36;29.3;;;15.9;;
77802;SDS011;66993;48.256;16.422;2024-01-30T19:40:34;32.2;;;16.2;;
77802;SDS011;66993;48.256;16.422;2024-01-30T19:45:36;31.7;;;14.9;;
77802;SDS011;66993;48.256;16.422;2024-01-30T19:50:37;32.3;;;14.7;;
77802;SDS011;66993;48.256;16.422;2024-01-30T19:55:38;32.5;;;15.7;;
77802;SDS011;66993;48.256;16.422;2024-01-30T20:00:40;32.4;;;15.1;;
77802;SDS011;66993;48.256;16.422;2024-01-30T20:05:41;33.4;;;16.8;;
77802;SDS011;66993;48.256;16.422;2024-01-30T20:10:43;33.3;;;15.3;;
77802;SDS011;66993;48.256;16.422;2024-01-30T20:15:44;33.3;;;14.6;;
77802;SDS011;66993;48.256;16.422;2024-01-30T20:20:48;34.8;;;16.0;;
77802;SDS011;66993;48.256;16.422;2024-01-30T20:25:47;32.7;;;16.0;;
77802;SDS011;66993;48.256;16.422;2024-01-30T20:30:53;37.7;;;18.3;;
77802;SDS011;66993;48.256;16.422;2024-01-30T20:35:49;38.5;;;17.7;;
77802;SDS011;66993;48.256;16.422;2024-01-30T20:40:51;32.8;;;15.3;;
77802;SDS011;66993;48.256;16.422;2024-01-30T20:45:52;38.1;;;17.2;;
77802;SDS011;66993;48.256;16.422;2024-01-30T20:50:53;34.0;;;17.2;;
77802;SDS011;66993;48.256;16.422;2024-01-30T20:55:55;35.3;;;17.3;;
77802;SDS011;66993;48.256;16.422;2024-01-30T21:00:56;36.7;;;17.6;;
77802;SDS011;66993;48.256;16.422;2024-01-30T21:05:57;37.5;;;17.0;;
77802;SDS011;66993;48.256;16.422;2024-01-30T21:10:58;34.3;;;17.5;;
77802;SDS011;66993;48.256;16.422;2024-01-30T21:16:00;38.3;;;19.2;;
77802;SDS011;66993;48.256;16.422;2024-01-30T21:21:01;38.3;;;21.2;;
77802;SDS011;66993;48.256;16.422;2024-01-30T21:26:04;38.7;;;18.9;;
77802;SDS011;66993;48.256;16.422;2024-01-30T21:31:04;35.8;;;17.1;;
77802;SDS011;66993;48.256;16.422;2024-01-30T21:36:06;40.5;;;18.4;;
77802;SDS011;66993;48.256;16.422;2024-01-30T21:41:06;43.2;;;20.5;;
77802;SDS011;66993;48.256;16.422;2024-01-30T21:46:09;40.7;;;21.2;;
77802;SDS011;66993;48.256;16.422;2024-01-30T21:51:10;38.5;;;18.1;;
77802;SDS011;66993;48.256;16.422;2024-01-30T21:56:11;41.9;;;17.7;;
77802;SDS011;66993;48.256;16.422;2024-01-30T22:01:12;39.8;;;18.6;;
77802;SDS011;66993;48.256;16.422;2024-01-30T22:06:15;40.5;;;18.4;;
77802;SDS011;66993;48.256;16.422;2024-01-30T22:11:14;46.0;;;21.1;;
77802;SDS011;66993;48.256;16.422;2024-01-30T22:16:18;42.8;;;20.1;;
77802;SDS011;66993;48.256;16.422;2024-01-30T22:21:17;45.2;;;21.2;;
77802;SDS011;66993;48.256;16.422;2024-01-30T22:26:19;51.9;;;24.1;;
77802;SDS011;66993;48.256;16.422;2024-01-30T22:31:20;62.7;;;28.6;;
77802;SDS011;66993;48.256;16.422;2024-01-30T22:36:21;63.3;;;28.4;;
77802;SDS011;66993;48.256;16.422;2024-01-30T22:41:23;66.9;;;29.9;;
77802;SDS011;66993;48.256;16.422;2024-01-30T22:46:25;69.7;;;28.0;;
77802;SDS011;66993;48.256;16.422;2024-01-30T22:51:25;69.7;;;28.9;;
77802;SDS011;66993;48.256;16.422;2024-01-30T22:56:27;78.7;;;31.9;;
77802;SDS011;66993;48.256;16.422;2024-01-30T23:01:28;71.8;;;31.2;;
77802;SDS011;66993;48.256;16.422;2024-01-30T23:06:30;78.5;;;31.9;;
77802;SDS011;66993;48.256;16.422;2024-01-30T23:11:30;79.0;;;31.8;;
77802;SDS011;66993;48.256;16.422;2024-01-30T23:16:34;80.7;;;32.1;;
77802;SDS011;66993;48.256;16.422;2024-01-30T23:21:33;80.3;;;32.4;;
77802;SDS011;66993;48.256;16.422;2024-01-30T23:26:37;80.8;;;35.0;;
77802;SDS011;66993;48.256;16.422;2024-01-30T23:31:39;74.3;;;31.0;;
77802;SDS011;66993;48.256;16.422;2024-01-30T23:36:39;82.1;;;31.8;;
77802;SDS011;66993;48.256;16.422;2024-01-30T23:41:38;85.1;;;34.3;;
77802;SDS011;66993;48.256;16.422;2024-01-30T23:46:41;81.5;;;33.7;;
77802;SDS011;66993;48.256;16.422;2024-01-30T23:51:41;86.1;;;36.0;;
77802;SDS011;66993;48.256;16.422;2024-01-30T23:56:43;88.4;;;36.9;;
